Time;durP1;ratioP1;P1;durP2;ratioP2;P2;SDS_P1;SDS_P2;PMS_P1;PMS_P2;Temp;Humidity;BMP_temperature;BMP_pressure;BME280_temperature;BME280_humidity;BME280_pressure;Samples;Min_cycle;Max_cycle;Signal;HPM_P1;HPM_P2
2023/01/20 00:00:40;;;;;;;;;;;;;;;18.37;41.53;100662.22;5152901;27;19927;-46
2023/01/20 00:03:06;;;;;;;;;;;;;;;18.36;41.60;100660.56;5152567;27;19927;-44
2023/01/20 00:05:32;;;;;;;;;;;;;;;18.36;41.55;100666.09;5152812;27;20370;-45
2023/01/20 00:07:57;;;;;;;;;;;;;;;18.37;41.57;100669.66;5153404;27;19934;-45
2023/01/20 00:10:23;;;;;;;;;;;;;;;18.37;41.52;100672.44;5153062;27;19927;-44
2023/01/20 00:12:48;;;;;;;;;;;;;;;18.36;41.46;100677.13;5145181;27;19923;-44
2023/01/20 00:15:14;;;;;;;;;;;;;;;18.36;41.37;100676.28;5162526;27;19926;-43
2023/01/20 00:17:40;;;;;;;;;;;;;;;18.38;41.47;100685.09;5155136;27;19923;-45
2023/01/20 00:20:06;;;;;;;;;;;;;;;18.37;41.37;100686.22;5141216;27;20311;-44
2023/01/20 00:22:32;;;;;;;;;;;;;;;18.38;41.47;100676.81;5132045;27;19928;-46
2023/01/20 00:24:58;;;;;;;;;;;;;;;18.37;41.52;100686.22;5131758;28;20372;-44
2023/01/20 00:27:24;;;;;;;;;;;;;;;18.37;41.54;100684.28;5131690;28;19923;-43
2023/01/20 00:29:49;;;;;;;;;;;;;;;18.37;41.54;100694.47;5131381;27;19923;-45
2023/01/20 00:32:15;;;;;;;;;;;;;;;18.36;41.32;100692.84;5113349;28;19966;-45
2023/01/20 00:34:40;;;;;;;;;;;;;;;18.36;41.56;100692.84;5131937;28;19935;-45
2023/01/20 00:37:06;;;;;;;;;;;;;;;18.37;41.52;100702.75;5132139;28;19999;-44
2023/01/20 00:39:31;;;;;;;;;;;;;;;18.35;41.46;100697.53;5131858;27;19927;-44
2023/01/20 00:41:57;;;;;;;;;;;;;;;18.36;41.27;100701.09;5131915;27;19923;-43
2023/01/20 00:44:23;;;;;;;;;;;;;;;18.36;41.22;100703.88;5131772;28;19946;-44
2023/01/20 00:46:48;;;;;;;;;;;;;;;18.36;41.52;100704.69;5131647;28;19927;-44
2023/01/20 00:49:14;;;;;;;;;;;;;;;18.36;41.33;100706.63;5131697;27;19946;-45
2023/01/20 00:51:39;;;;;;;;;;;;;;;18.35;41.62;100700.28;5131524;27;19931;-46
2023/01/20 00:54:05;;;;;;;;;;;;;;;18.35;41.29;100705.81;5143170;27;19922;-44
2023/01/20 00:56:31;;;;;;;;;;;;;;;18.36;41.22;100712.97;5173353;27;19949;-45
2023/01/20 00:58:56;;;;;;;;;;;;;;;18.35;41.57;100711.31;5160177;27;19927;-43
2023/01/20 01:01:22;;;;;;;;;;;;;;;18.35;41.28;100713.22;5131229;27;20310;-44
2023/01/20 01:03:47;;;;;;;;;;;;;;;18.35;41.49;100707.69;5131608;28;19923;-44
2023/01/20 01:06:14;;;;;;;;;;;;;;;18.35;41.38;100715.97;5131580;28;19946;-46
2023/01/20 01:08:40;;;;;;;;;;;;;;;18.35;41.51;100721.50;5131393;27;20014;-44
2023/01/20 01:11:06;;;;;;;;;;;;;;;18.35;41.36;100719.59;5112890;27;19961;-44
2023/01/20 01:13:31;;;;;;;;;;;;;;;18.35;41.48;100716.81;5131408;28;19927;-47
2023/01/20 01:15:57;;;;;;;;;;;;;;;18.36;41.36;100720.41;5130302;27;20378;-44
2023/01/20 01:18:22;;;;;;;;;;;;;;;18.35;41.57;100721.50;5112697;27;19923;-44
2023/01/20 01:20:48;;;;;;;;;;;;;;;18.34;41.46;100722.59;5131189;28;19938;-44
2023/01/20 01:23:13;;;;;;;;;;;;;;;18.35;41.42;100729.75;5131249;27;19934;-45
2023/01/20 01:25:39;;;;;;;;;;;;;;;18.35;41.09;100738.03;5130560;28;20040;-45
2023/01/20 01:28:05;;;;;;;;;;;;;;;18.35;41.57;100738.03;5131139;28;19923;-43
2023/01/20 01:30:30;;;;;;;;;;;;;;;18.34;41.54;100737.22;5112077;28;20371;-45
2023/01/20 01:32:56;;;;;;;;;;;;;;;18.34;41.39;100736.38;5130714;27;19924;-43
2023/01/20 01:35:21;;;;;;;;;;;;;;;18.35;41.45;100747.16;5130815;28;19934;-44
2023/01/20 01:37:47;;;;;;;;;;;;;;;18.35;41.62;100740.78;5130892;28;20294;-44
2023/01/20 01:40:12;;;;;;;;;;;;;;;18.34;41.51;100739.97;5130799;27;19927;-44
2023/01/20 01:42:38;;;;;;;;;;;;;;;18.34;41.51;100742.72;5131163;27;20473;-44
2023/01/20 01:45:13;;;;;;;;;;;;;;;18.34;41.53;100744.66;5130932;28;19928;-45
2023/01/20 01:47:41;;;;;;;;;;;;;;;18.34;41.50;100751.00;5112668;28;19971;-45
2023/01/20 01:50:08;;;;;;;;;;;;;;;18.34;41.22;100748.25;5112139;28;19927;-45
2023/01/20 01:52:33;;;;;;;;;;;;;;;18.34;41.49;100752.94;5112095;28;19962;-44
2023/01/20 01:54:59;;;;;;;;;;;;;;;18.34;41.45;100753.75;5157411;27;19930;-45
2023/01/20 01:57:24;;;;;;;;;;;;;;;18.34;41.53;100767.53;5172089;27;19952;-43
2023/01/20 01:59:50;;;;;;;;;;;;;;;18.34;41.41;100770.28;5144139;27;20275;-45
2023/01/20 02:02:16;;;;;;;;;;;;;;;18.34;41.47;100766.72;5130399;27;19924;-44
2023/01/20 02:04:48;;;;;;;;;;;;;;;18.33;41.54;100782.44;5130119;28;19924;-44
2023/01/20 02:07:15;;;;;;;;;;;;;;;18.32;41.50;100780.78;5130593;28;19923;-45
2023/01/20 02:09:41;;;;;;;;;;;;;;;18.34;41.45;100783.25;5111859;28;20279;-42
2023/01/20 02:12:07;;;;;;;;;;;;;;;18.33;41.58;100782.44;5130131;27;20096;-44
2023/01/20 02:14:33;;;;;;;;;;;;;;;18.34;41.31;100781.31;5130309;28;20359;-44
2023/01/20 02:17:03;;;;;;;;;;;;;;;18.34;41.50;100783.25;5111783;28;20397;-44
2023/01/20 02:19:32;;;;;;;;;;;;;;;18.34;41.50;100788.78;5130059;27;19924;-44
2023/01/20 02:22:07;;;;;;;;;;;;;;;18.34;41.47;100788.78;5111872;28;20027;-46
2023/01/20 02:24:38;;;;;;;;;;;;;;;18.33;41.49;100782.44;5129701;28;19924;-45
2023/01/20 02:27:07;;;;;;;;;;;;;;;18.34;41.32;100781.31;5130016;27;19927;-45
2023/01/20 02:29:39;;;;;;;;;;;;;;;18.34;41.33;100786.00;5111236;28;19934;-45
2023/01/20 02:32:06;;;;;;;;;;;;;;;18.33;41.28;100782.44;5130167;27;19959;-45
2023/01/20 02:34:33;;;;;;;;;;;;;;;18.34;41.46;100786.00;5130135;28;19930;-44
2023/01/20 02:37:00;;;;;;;;;;;;;;;18.33;41.29;100793.47;5129999;28;19932;-46
2023/01/20 02:39:27;;;;;;;;;;;;;;;18.33;41.45;100793.47;5111603;28;20339;-45
2023/01/20 02:42:02;;;;;;;;;;;;;;;18.33;41.48;100787.13;5111636;28;20133;-44
2023/01/20 02:44:31;;;;;;;;;;;;;;;18.33;41.21;100793.47;5130125;28;19927;-46
2023/01/20 02:47:01;;;;;;;;;;;;;;;18.32;41.40;100789.06;5129935;28;19923;-44
2023/01/20 02:49:31;;;;;;;;;;;;;;;18.32;41.34;100786.31;5111358;28;19984;-44
2023/01/20 02:51:57;;;;;;;;;;;;;;;18.32;41.50;100785.47;5129765;27;19966;-46
2023/01/20 02:54:23;;;;;;;;;;;;;;;18.34;41.27;100791.53;5137968;27;19962;-43
2023/01/20 02:56:49;;;;;;;;;;;;;;;18.33;41.40;100789.88;5131499;27;19958;-44
2023/01/20 02:59:16;;;;;;;;;;;;;;;18.33;41.29;100787.13;5150136;27;19923;-44
2023/01/20 03:01:46;;;;;;;;;;;;;;;18.33;41.47;100784.38;5131265;27;19962;-43
2023/01/20 03:04:14;;;;;;;;;;;;;;;18.33;41.41;100789.88;5132245;27;19927;-44
2023/01/20 03:06:41;;;;;;;;;;;;;;;18.32;41.50;100786.31;5150185;27;20339;-44
2023/01/20 03:09:08;;;;;;;;;;;;;;;18.33;41.48;100787.13;5150163;27;19974;-44
2023/01/20 03:11:35;;;;;;;;;;;;;;;18.32;41.34;100789.06;5149817;27;20270;-44
2023/01/20 03:14:10;;;;;;;;;;;;;;;18.33;41.56;100792.63;5150207;27;19927;-44
2023/01/20 03:16:35;;;;;;;;;;;;;;;18.32;41.59;100796.50;5131721;27;19972;-45
2023/01/20 03:19:01;;;;;;;;;;;;;;;18.32;41.51;100797.31;5150341;27;19926;-43
2023/01/20 03:21:26;;;;;;;;;;;;;;;18.33;41.49;100798.16;5131320;27;19927;-45
2023/01/20 03:23:53;;;;;;;;;;;;;;;18.32;41.50;100802.84;5149969;27;19979;-45
2023/01/20 03:26:19;;;;;;;;;;;;;;;18.32;41.55;100810.28;5149950;27;19974;-45
2023/01/20 03:28:44;;;;;;;;;;;;;;;18.32;41.50;100810.28;5131472;27;20390;-48
2023/01/20 03:31:12;;;;;;;;;;;;;;;18.33;41.29;100811.94;5130868;27;20028;-45
2023/01/20 03:33:38;;;;;;;;;;;;;;;18.33;41.31;100806.41;5150068;27;19999;-46
2023/01/20 03:36:03;;;;;;;;;;;;;;;18.32;41.33;100810.28;5149896;27;19927;-43
2023/01/20 03:38:29;;;;;;;;;;;;;;;18.31;41.30;100817.75;5151371;27;20355;-44
2023/01/20 03:41:13;;;;;;;;;;;;;;;18.33;41.51;100823.78;5153586;27;19930;-44
2023/01/20 03:43:44;;;;;;;;;;;;;;;18.32;41.55;100826.84;5153554;27;19927;-44
2023/01/20 03:46:13;;;;;;;;;;;;;;;18.32;41.47;100826.84;5153079;27;19935;-44
2023/01/20 03:48:40;;;;;;;;;;;;;;;18.32;41.33;100822.13;5153744;27;20347;-44
2023/01/20 03:51:11;;;;;;;;;;;;;;;18.32;41.51;100819.38;5134750;27;20001;-43
2023/01/20 03:53:44;;;;;;;;;;;;;;;18.31;41.57;100820.50;5136080;27;20043;-45
2023/01/20 03:56:27;;;;;;;;;;;;;;;18.30;41.34;100822.41;5174102;27;19934;-45
2023/01/20 03:58:52;;;;;;;;;;;;;;;18.31;41.38;100826.00;5144359;27;19970;-43
2023/01/20 04:01:18;;;;;;;;;;;;;;;18.30;41.47;100825.16;5132250;27;19930;-45
2023/01/20 04:03:45;;;;;;;;;;;;;;;18.31;41.55;100828.75;5132604;28;19923;-43
2023/01/20 04:06:11;;;;;;;;;;;;;;;18.31;41.64;100820.50;5114111;28;19923;-44
2023/01/20 04:08:38;;;;;;;;;;;;;;;18.32;41.33;100822.13;5132403;27;19923;-45
2023/01/20 04:11:04;;;;;;;;;;;;;;;18.32;41.37;100824.06;5113699;27;19980;-44
2023/01/20 04:13:29;;;;;;;;;;;;;;;18.31;41.52;100817.75;5132397;28;20355;-45
2023/01/20 04:15:55;;;;;;;;;;;;;;;18.31;41.51;100826.00;5131936;28;20264;-44
2023/01/20 04:18:21;;;;;;;;;;;;;;;18.30;41.36;100830.66;5132074;27;19923;-43
2023/01/20 04:20:48;;;;;;;;;;;;;;;18.30;41.50;100829.84;5132164;28;19930;-44
2023/01/20 04:23:17;;;;;;;;;;;;;;;18.32;41.50;100829.59;5113645;28;19962;-45
2023/01/20 04:25:42;;;;;;;;;;;;;;;18.31;41.38;100831.53;5131778;28;19927;-48
2023/01/20 04:28:08;;;;;;;;;;;;;;;18.32;41.39;100829.59;5132202;28;19975;-44
2023/01/20 04:30:33;;;;;;;;;;;;;;;18.32;41.57;100826.84;5131627;27;19924;-44
2023/01/20 04:32:59;;;;;;;;;;;;;;;18.31;41.39;100826.00;5132070;27;19931;-43
2023/01/20 04:35:25;;;;;;;;;;;;;;;18.30;41.31;100829.84;5132101;28;20317;-45
2023/01/20 04:37:50;;;;;;;;;;;;;;;18.31;41.32;100837.03;5132070;28;19923;-44
2023/01/20 04:40:16;;;;;;;;;;;;;;;18.30;41.79;100827.91;5132018;27;19950;-43
2023/01/20 04:42:41;;;;;;;;;;;;;;;18.31;41.53;100834.28;5131922;27;19923;-44
2023/01/20 04:45:08;;;;;;;;;;;;;;;18.30;41.53;100836.19;5132021;28;19950;-44
2023/01/20 04:47:33;;;;;;;;;;;;;;;18.31;41.27;100848.06;5113498;28;20374;-46
2023/01/20 04:49:59;;;;;;;;;;;;;;;18.30;41.49;100847.22;5131663;27;19930;-44
2023/01/20 04:52:24;;;;;;;;;;;;;;;18.30;41.47;100838.94;5131133;27;19946;-45
2023/01/20 04:54:50;;;;;;;;;;;;;;;18.31;41.64;100845.31;5131221;27;19923;-44
2023/01/20 04:57:16;;;;;;;;;;;;;;;18.32;41.42;100854.41;5131723;28;20264;-44
2023/01/20 04:59:41;;;;;;;;;;;;;;;18.30;41.44;100858.25;5143468;27;19929;-44
2023/01/20 05:02:07;;;;;;;;;;;;;;;18.30;41.46;100861.00;5152215;27;19927;-44
2023/01/20 05:04:32;;;;;;;;;;;;;;;18.30;41.53;100855.47;5152329;27;19927;-43
2023/01/20 05:06:58;;;;;;;;;;;;;;;18.31;41.53;100859.09;5152245;27;19927;-44
2023/01/20 05:09:23;;;;;;;;;;;;;;;18.29;41.33;100853.00;5152163;27;19927;-44
2023/01/20 05:11:49;;;;;;;;;;;;;;;18.29;41.33;100866.78;5151718;27;19931;-45
2023/01/20 05:14:15;;;;;;;;;;;;;;;18.29;41.50;100867.63;5152021;27;20258;-42
2023/01/20 05:16:40;;;;;;;;;;;;;;;18.30;41.53;100865.69;5151537;27;19923;-43
2023/01/20 05:19:06;;;;;;;;;;;;;;;18.29;41.39;100859.34;5151892;27;20343;-44
2023/01/20 05:21:31;;;;;;;;;;;;;;;18.30;41.61;100874.78;5151761;27;19976;-44
2023/01/20 05:23:57;;;;;;;;;;;;;;;18.30;41.52;100857.41;5151193;27;20275;-45
2023/01/20 05:26:23;;;;;;;;;;;;;;;18.30;41.49;100873.94;5151470;27;19927;-44
2023/01/20 05:28:48;;;;;;;;;;;;;;;18.30;41.51;100874.78;5151640;27;20347;-45
2023/01/20 05:31:14;;;;;;;;;;;;;;;18.30;41.26;100872.03;5132610;27;19927;-44
2023/01/20 05:33:40;;;;;;;;;;;;;;;18.30;41.39;100871.19;5151677;27;19927;-43
2023/01/20 05:36:06;;;;;;;;;;;;;;;18.29;41.48;100869.56;5151809;27;19930;-44
2023/01/20 05:38:31;;;;;;;;;;;;;;;18.29;41.35;100873.13;5151750;27;19923;-43
2023/01/20 05:41:00;;;;;;;;;;;;;;;18.30;41.33;100882.22;5151606;27;19923;-44
2023/01/20 05:43:26;;;;;;;;;;;;;;;18.30;41.58;100884.97;5132944;27;20373;-44
2023/01/20 05:45:51;;;;;;;;;;;;;;;18.28;41.44;100879.75;5151721;27;20395;-43
2023/01/20 05:48:17;;;;;;;;;;;;;;;18.29;41.32;100886.91;5151482;27;19923;-44
2023/01/20 05:50:42;;;;;;;;;;;;;;;18.29;41.39;100889.66;5151010;27;20591;-44
2023/01/20 05:53:08;;;;;;;;;;;;;;;18.29;41.35;100886.91;5152660;27;19923;-46
2023/01/20 05:55:33;;;;;;;;;;;;;;;18.29;41.39;100895.19;5171856;27;20334;-49
2023/01/20 05:58:01;;;;;;;;;;;;;;;18.29;41.24;100900.69;5171613;27;19927;-45
2023/01/20 06:00:27;;;;;;;;;;;;;;;18.28;41.54;100896.28;5152350;27;20284;-43
2023/01/20 06:02:52;;;;;;;;;;;;;;;18.29;41.57;100913.66;5151160;27;20341;-43
2023/01/20 06:05:18;;;;;;;;;;;;;;;18.29;41.50;100903.47;5151347;27;19927;-44
2023/01/20 06:07:43;;;;;;;;;;;;;;;18.28;41.54;100907.31;5132753;27;20217;-48
2023/01/20 06:10:09;;;;;;;;;;;;;;;18.29;41.55;100908.16;5151181;27;19927;-44
2023/01/20 06:12:35;;;;;;;;;;;;;;;18.28;41.43;100910.06;5151283;27;19927;-46
2023/01/20 06:15:00;;;;;;;;;;;;;;;18.29;41.27;100919.19;5133316;27;20349;-43
2023/01/20 06:17:26;;;;;;;;;;;;;;;18.29;41.51;100911.72;5129979;27;19923;-43
2023/01/20 06:19:51;;;;;;;;;;;;;;;18.29;41.32;100921.94;5138784;27;19943;-45
2023/01/20 06:22:19;;;;;;;;;;;;;;;18.29;41.53;100925.50;5144508;27;19930;-47
2023/01/20 06:24:45;;;;;;;;;;;;;;;18.29;41.34;100927.44;5135064;27;19930;-44
2023/01/20 06:27:10;;;;;;;;;;;;;;;18.28;41.51;100923.03;5132475;27;19924;-46
2023/01/20 06:29:38;;;;;;;;;;;;;;;18.29;41.65;100933.78;5131634;27;19924;-47
2023/01/20 06:32:04;;;;;;;;;;;;;;;18.29;41.56;100931.03;5144756;27;19931;-47
2023/01/20 06:34:30;;;;;;;;;;;;;;;18.29;41.59;100938.47;5142754;27;19927;-44
2023/01/20 06:36:55;;;;;;;;;;;;;;;18.28;41.34;100939.59;5118395;27;19927;-47
2023/01/20 06:39:21;;;;;;;;;;;;;;;18.28;41.59;100943.16;5149039;27;19923;-44
2023/01/20 06:41:47;;;;;;;;;;;;;;;18.29;41.46;100946.75;5141908;27;19931;-45
2023/01/20 06:44:12;;;;;;;;;;;;;;;18.28;41.50;100940.41;5111849;27;19983;-45
2023/01/20 06:46:38;;;;;;;;;;;;;;;18.29;41.50;100935.72;5143745;27;20335;-45
2023/01/20 06:49:03;;;;;;;;;;;;;;;18.26;41.88;100939.00;5137986;27;19927;-47
2023/01/20 06:51:29;;;;;;;;;;;;;;;18.30;41.78;100948.38;5137203;27;19927;-44
2023/01/20 06:53:55;;;;;;;;;;;;;;;18.30;41.73;100943.69;5109273;27;19928;-45
2023/01/20 06:56:20;;;;;;;;;;;;;;;18.32;42.31;100953.66;5131083;27;19938;-52
2023/01/20 06:58:46;;;;;;;;;;;;;;;18.34;42.37;100957.78;5124315;27;19931;-46
2023/01/20 07:01:14;;;;;;;;;;;;;;;18.34;41.89;100955.00;5128013;27;19931;-47
2023/01/20 07:03:42;;;;;;;;;;;;;;;18.35;42.19;100955.84;5117664;27;20417;-45
2023/01/20 07:06:13;;;;;;;;;;;;;;;18.35;42.77;100956.69;5104574;27;20067;-44
2023/01/20 07:08:38;;;;;;;;;;;;;;;18.34;42.54;100960.53;5119270;27;19973;-44
2023/01/20 07:11:04;;;;;;;;;;;;;;;18.35;42.65;100962.22;5131917;27;19923;-44
2023/01/20 07:13:30;;;;;;;;;;;;;;;18.35;42.22;100964.09;5135642;27;19927;-47
2023/01/20 07:15:55;;;;;;;;;;;;;;;18.37;43.37;100970.19;5135778;27;19927;-43
2023/01/20 07:18:21;;;;;;;;;;;;;;;18.38;43.29;100963.56;5126745;27;19948;-44
2023/01/20 07:20:51;;;;;;;;;;;;;;;18.36;42.94;100972.13;5139357;27;19968;-43
2023/01/20 07:23:16;;;;;;;;;;;;;;;18.42;42.37;100970.19;5145317;27;20298;-44
2023/01/20 07:25:42;;;;;;;;;;;;;;;18.40;42.58;100973.22;5138341;27;19932;-42
2023/01/20 07:28:08;;;;;;;;;;;;;;;18.42;42.47;100972.94;5116837;27;20004;-44
2023/01/20 07:30:33;;;;;;;;;;;;;;;18.41;42.71;100979.56;5132274;27;19930;-43
2023/01/20 07:32:59;;;;;;;;;;;;;;;18.40;42.42;100987.03;5129994;27;19923;-43
2023/01/20 07:35:24;;;;;;;;;;;;;;;18.39;41.79;100990.03;5138419;27;21206;-45
2023/01/20 07:37:50;;;;;;;;;;;;;;;18.42;42.66;100983.97;5132608;27;20310;-44
2023/01/20 07:40:16;;;;;;;;;;;;;;;18.40;41.81;100991.72;5125013;27;19938;-45
2023/01/20 07:42:42;;;;;;;;;;;;;;;18.42;41.97;100995.00;5132014;27;19962;-44
2023/01/20 07:45:07;;;;;;;;;;;;;;;18.43;42.31;100994.72;5134976;27;19938;-51
2023/01/20 07:47:33;;;;;;;;;;;;;;;18.43;42.31;100986.44;5146139;27;20371;-49
2023/01/20 07:49:58;;;;;;;;;;;;;;;18.43;41.96;101000.22;5132403;27;19950;-45
2023/01/20 07:52:24;;;;;;;;;;;;;;;18.44;42.27;101004.69;5138519;27;20022;-45
2023/01/20 07:54:50;;;;;;;;;;;;;;;18.43;41.33;101014.03;5135600;27;19927;-45
2023/01/20 07:57:15;;;;;;;;;;;;;;;18.44;41.59;101006.59;5140061;27;19927;-48
2023/01/20 07:59:41;;;;;;;;;;;;;;;18.43;41.21;101004.94;5139685;27;19934;-51
2023/01/20 08:02:07;;;;;;;;;;;;;;;18.44;42.18;101017.63;5136156;27;19977;-44
2023/01/20 08:04:33;;;;;;;;;;;;;;;18.43;40.77;101022.28;5129304;27;19984;-45
2023/01/20 08:06:59;;;;;;;;;;;;;;;18.43;41.13;101016.78;5135555;27;19923;-44
2023/01/20 08:09:24;;;;;;;;;;;;;;;18.44;41.26;101015.69;5138875;27;19976;-43
2023/01/20 08:11:50;;;;;;;;;;;;;;;18.44;41.93;101021.22;5132438;27;19934;-44
2023/01/20 08:14:15;;;;;;;;;;;;;;;18.46;42.06;101029.22;5144692;27;19927;-45
2023/01/20 08:16:41;;;;;;;;;;;;;;;18.45;42.16;101022.03;5140502;27;19939;-47
2023/01/20 08:19:07;;;;;;;;;;;;;;;18.46;42.08;101029.22;5145753;27;19927;-46
2023/01/20 08:21:32;;;;;;;;;;;;;;;18.46;42.04;101038.31;5138262;27;20020;-43
2023/01/20 08:23:59;;;;;;;;;;;;;;;18.46;41.18;101032.78;5142490;27;19930;-45
2023/01/20 08:26:26;;;;;;;;;;;;;;;18.47;42.14;101039.94;5140606;27;19931;-44
2023/01/20 08:28:51;;;;;;;;;;;;;;;18.48;41.99;101043.53;5136228;27;19927;-43
2023/01/20 08:31:18;;;;;;;;;;;;;;;18.47;41.84;101041.88;5117164;27;19934;-45
2023/01/20 08:33:44;;;;;;;;;;;;;;;18.48;41.52;101047.16;5119654;27;19932;-43
2023/01/20 08:36:11;;;;;;;;;;;;;;;18.47;41.84;101048.22;5137523;27;19938;-44
2023/01/20 08:38:37;;;;;;;;;;;;;;;18.46;40.45;101043.00;5141407;27;19980;-48
2023/01/20 08:41:06;;;;;;;;;;;;;;;18.41;40.04;101046.56;5138791;27;19979;-55
2023/01/20 08:43:32;;;;;;;;;;;;;;;18.12;40.73;101056.41;5119537;27;19936;-46
2023/01/20 08:46:02;;;;;;;;;;;;;;;18.30;41.24;101056.72;5142244;27;20374;-43
2023/01/20 08:48:28;;;;;;;;;;;;;;;18.39;41.81;101058.97;5130089;27;19938;-46
2023/01/20 08:50:53;;;;;;;;;;;;;;;18.44;41.73;101061.75;5129568;27;19935;-45
2023/01/20 08:53:19;;;;;;;;;;;;;;;18.45;41.75;101064.22;5136368;27;19933;-45
2023/01/20 08:55:52;;;;;;;;;;;;;;;18.47;41.45;101066.72;5135912;27;20310;-44
2023/01/20 08:58:18;;;;;;;;;;;;;;;18.46;41.32;101063.13;5128101;27;20711;-45
2023/01/20 09:00:43;;;;;;;;;;;;;;;18.48;41.57;101060.94;5130525;27;20439;-44
2023/01/20 09:03:10;;;;;;;;;;;;;;;18.48;41.50;101066.44;5141207;27;19935;-44
2023/01/20 09:05:35;;;;;;;;;;;;;;;18.50;41.82;101066.16;5136400;27;19931;-43
2023/01/20 09:08:01;;;;;;;;;;;;;;;18.51;41.56;101070.56;5133131;27;19938;-46
2023/01/20 09:10:27;;;;;;;;;;;;;;;18.50;41.19;101074.44;5128459;27;19924;-45
2023/01/20 09:12:52;;;;;;;;;;;;;;;18.29;40.29;101077.13;5132114;27;19931;-49
2023/01/20 09:15:19;;;;;;;;;;;;;;;18.50;41.64;101066.16;5131980;27;19923;-55
2023/01/20 09:17:44;;;;;;;;;;;;;;;18.20;40.07;101067.75;5130313;27;20010;-47
2023/01/20 09:20:10;;;;;;;;;;;;;;;18.37;39.63;101067.53;5135698;27;19931;-50
2023/01/20 09:22:36;;;;;;;;;;;;;;;18.45;41.51;101063.41;5137775;27;19944;-45
2023/01/20 09:25:02;;;;;;;;;;;;;;;18.49;41.83;101059.00;5136570;27;19934;-46
2023/01/20 09:27:27;;;;;;;;;;;;;;;18.52;42.06;101063.94;5141966;27;19936;-46
2023/01/20 09:29:53;;;;;;;;;;;;;;;18.52;41.01;101064.81;5145400;27;19931;-45
2023/01/20 09:32:18;;;;;;;;;;;;;;;18.41;40.48;101057.59;5135557;27;19976;-48
2023/01/20 09:34:44;;;;;;;;;;;;;;;18.50;41.33;101057.91;5135209;27;19927;-48
2023/01/20 09:45:42;;;;;;;;;;;;;;;18.60;41.69;101074.44;5121320;27;20342;-44
2023/01/20 09:48:14;;;;;;;;;;;;;;;18.57;41.49;101080.53;5148298;27;19946;-46
2023/01/20 09:53:33;;;;;;;;;;;;;;;18.57;41.82;101077.78;5124123;27;19924;-47
2023/01/20 09:56:00;;;;;;;;;;;;;;;18.58;41.84;101081.38;5141313;27;20428;-47
2023/01/20 09:58:29;;;;;;;;;;;;;;;18.57;41.71;101083.28;5141431;27;20658;-44
2023/01/20 10:00:58;;;;;;;;;;;;;;;18.56;40.58;101078.84;5136841;27;19983;-44
2023/01/20 10:03:28;;;;;;;;;;;;;;;18.57;41.69;101080.53;5131034;27;19962;-45
2023/01/20 10:05:54;;;;;;;;;;;;;;;18.59;41.76;101083.00;5145797;27;19979;-45
2023/01/20 10:08:22;;;;;;;;;;;;;;;18.58;41.84;101078.59;5137300;27;19931;-46
2023/01/20 10:10:49;;;;;;;;;;;;;;;18.59;41.23;101086.59;5139013;27;19923;-44
2023/01/20 10:13:24;;;;;;;;;;;;;;;18.58;41.70;101087.69;5142223;27;19927;-45
2023/01/20 10:15:52;;;;;;;;;;;;;;;18.60;41.92;101092.94;5118809;27;19931;-46
2023/01/20 10:18:19;;;;;;;;;;;;;;;18.60;41.43;101081.91;5124121;27;19923;-45
2023/01/20 10:20:47;;;;;;;;;;;;;;;18.60;41.91;101081.91;5126172;27;19984;-45
2023/01/20 10:23:20;;;;;;;;;;;;;;;18.61;41.83;101080.78;5137745;27;20378;-43
2023/01/20 10:25:48;;;;;;;;;;;;;;;18.60;41.35;101077.22;5119541;27;19931;-45
2023/01/20 10:28:14;;;;;;;;;;;;;;;18.62;41.54;101079.72;5136650;27;20355;-44
2023/01/20 10:30:40;;;;;;;;;;;;;;;18.61;41.97;101080.78;5138382;27;19928;-44
2023/01/20 10:33:08;;;;;;;;;;;;;;;18.62;42.05;101079.72;5125570;27;19927;-45
2023/01/20 10:35:36;;;;;;;;;;;;;;;18.62;41.99;101083.28;5121356;27;19958;-44
2023/01/20 10:38:02;;;;;;;;;;;;;;;18.63;41.76;101076.66;5133808;27;19931;-44
2023/01/20 10:40:33;;;;;;;;;;;;;;;18.62;41.67;101083.28;5136797;27;19923;-45
2023/01/20 10:43:03;;;;;;;;;;;;;;;18.62;41.90;101083.28;5140117;27;19958;-44
2023/01/20 10:45:37;;;;;;;;;;;;;;;18.62;41.73;101079.72;5118365;27;20405;-44
2023/01/20 10:48:23;;;;;;;;;;;;;;;18.63;41.89;101073.91;5139726;27;19931;-44
2023/01/20 10:50:51;;;;;;;;;;;;;;;18.62;41.50;101077.78;5127413;27;20321;-47
2023/01/20 10:53:37;;;;;;;;;;;;;;;18.63;41.71;101078.59;5137823;27;20373;-43
2023/01/20 10:56:23;;;;;;;;;;;;;;;18.62;41.58;101069.50;5128103;27;20553;-44
2023/01/20 10:58:48;;;;;;;;;;;;;;;18.62;41.75;101075.03;5138930;27;19971;-44
2023/01/20 11:01:14;;;;;;;;;;;;;;;18.62;41.45;101071.44;5143024;27;20381;-44
2023/01/20 11:03:41;;;;;;;;;;;;;;;18.62;41.64;101074.19;5117188;27;19987;-45
2023/01/20 11:06:08;;;;;;;;;;;;;;;18.62;41.62;101064.00;5123927;27;19934;-44
2023/01/20 11:08:34;;;;;;;;;;;;;;;18.61;41.81;101065.09;5148325;27;20319;-45
2023/01/20 11:11:01;;;;;;;;;;;;;;;18.62;41.52;101063.16;5130031;27;19931;-43
2023/01/20 11:13:27;;;;;;;;;;;;;;;18.61;41.34;101056.81;5141465;27;19934;-47
2023/01/20 11:15:53;;;;;;;;;;;;;;;18.61;41.63;101064.25;5138960;27;19927;-46
2023/01/20 11:18:21;;;;;;;;;;;;;;;18.61;41.64;101061.47;5129569;27;19923;-47
2023/01/20 11:20:48;;;;;;;;;;;;;;;18.60;41.42;101066.19;5127393;27;19966;-48
2023/01/20 11:23:35;;;;;;;;;;;;;;;18.61;41.50;101067.00;5142978;27;19927;-46
2023/01/20 11:26:08;;;;;;;;;;;;;;;18.60;41.50;101073.63;5132378;27;19982;-48
2023/01/20 11:28:36;;;;;;;;;;;;;;;18.60;41.61;101068.09;5134460;27;20400;-48
2023/01/20 11:31:02;;;;;;;;;;;;;;;18.59;41.56;101072.81;5127780;27;19924;-49
2023/01/20 11:33:27;;;;;;;;;;;;;;;18.14;37.00;101066.09;5124269;27;20394;-50
2023/01/20 11:36:13;;;;;;;;;;;;;;;18.41;39.79;101073.31;5151831;27;20254;-46
2023/01/20 11:38:41;;;;;;;;;;;;;;;18.49;40.43;101078.31;5132387;27;19962;-45
2023/01/20 11:41:16;;;;;;;;;;;;;;;18.52;40.34;101075.84;5132046;27;20009;-44
2023/01/20 11:43:41;;;;;;;;;;;;;;;18.54;40.31;101067.28;5117238;27;19931;-44
2023/01/20 11:46:09;;;;;;;;;;;;;;;18.55;40.63;101063.41;5145319;27;20024;-44
2023/01/20 11:48:34;;;;;;;;;;;;;;;18.56;40.58;101062.31;5132993;27;20280;-47
2023/01/20 11:51:00;;;;;;;;;;;;;;;18.55;40.70;101060.66;5143111;27;19924;-48
2023/01/20 11:53:27;;;;;;;;;;;;;;;18.56;40.44;101062.31;5134189;27;19955;-45
2023/01/20 11:55:55;;;;;;;;;;;;;;;18.55;40.60;101060.66;5152089;27;19933;-45
2023/01/20 11:58:22;;;;;;;;;;;;;;;18.56;40.66;101062.31;5152803;27;19969;-45
2023/01/20 12:00:48;;;;;;;;;;;;;;;18.54;40.80;101057.06;5150154;27;19952;-48
2023/01/20 12:03:18;;;;;;;;;;;;;;;18.56;40.75;101059.53;5131504;27;19960;-43
2023/01/20 12:06:00;;;;;;;;;;;;;;;18.56;40.84;101062.31;5134707;27;19981;-45
2023/01/20 12:08:43;;;;;;;;;;;;;;;18.55;40.54;101055.13;5153294;27;20579;-46
2023/01/20 12:11:09;;;;;;;;;;;;;;;18.55;40.82;101061.47;5150338;27;19948;-46
2023/01/20 12:14:18;;;;;;;;;;;;;;;18.54;40.75;101051.56;5153202;27;19942;-47
2023/01/20 12:16:20;;;;;;;;;;;;;;;18.55;40.82;101052.38;5137707;27;19934;-44
2023/01/20 12:18:51;;;;;;;;;;;;;;;18.55;40.66;101055.13;5149772;27;20108;-44
2023/01/20 12:21:28;;;;;;;;;;;;;;;18.54;40.83;101059.84;5127362;27;19938;-45
2023/01/20 12:24:03;;;;;;;;;;;;;;;18.54;40.71;101050.72;5113665;27;19924;-48
2023/01/20 12:26:30;;;;;;;;;;;;;;;18.54;40.46;101053.50;5152452;27;19923;-44
2023/01/20 12:29:16;;;;;;;;;;;;;;;18.54;40.71;101056.25;5147856;27;19973;-45
2023/01/20 12:31:42;;;;;;;;;;;;;;;18.54;40.84;101059.00;5136734;27;20339;-43
2023/01/20 12:34:27;;;;;;;;;;;;;;;18.54;40.67;101061.75;5152567;27;19930;-44
2023/01/20 12:37:13;;;;;;;;;;;;;;;18.52;41.91;101064.81;5124271;27;19923;-44
2023/01/20 12:39:41;;;;;;;;;;;;;;;18.48;39.29;101065.59;5136982;27;19927;-44
2023/01/20 12:42:13;;;;;;;;;;;;;;;18.48;38.39;101058.19;5152865;27;20314;-44
2023/01/20 12:44:58;;;;;;;;;;;;;;;18.40;36.89;101066.97;5152662;27;19976;-47
2023/01/20 12:47:44;;;;;;;;;;;;;;;18.46;39.39;101068.63;5137180;27;19923;-46